AFR56KC LFPG-EDDL
Flight info
| Callsign | AFR56KC |
|---|---|
| Flight time | 0h 46m |
| Altitude | 22000 |
| Route | RANUX DCT VALEK DCT LUTAX UM163 DIK N853 ARCKY T853 NVO T857 BIKMU BIKMU1A |
| Aircraft | E190/M-SDE3GILORVW/S |
Departure
| Time | 2026-05-05 13:00 |
|---|---|
| Airport | Charles de Gaulle International Airport (LFPG) |
Arrival
| Time | 2026-05-05 13:46 |
|---|---|
| Airport | Düsseldorf Airport (EDDL) |
| Time | Latitude | Longitude | Altitude | Speed | Heading |
|---|---|---|---|---|---|
| 2026-05-05 12:27 | 49.00408 | 2.60412 | 333 ft | 0 kts | 316° |
| 2026-05-05 12:36 | 49.00408 | 2.60413 | 333 ft | 0 kts | 316° |
| 2026-05-05 12:47 | 49.00401 | 2.60424 | 330 ft | 4 kts | 311° |
| 2026-05-05 12:47 | 49.00387 | 2.60457 | 330 ft | 4 kts | 272° |
| 2026-05-05 12:47 | 49.00392 | 2.60482 | 331 ft | 4 kts | 184° |
| 2026-05-05 12:47 | 49.00413 | 2.60481 | 328 ft | 1 kts | 175° |
| 2026-05-05 12:51 | 49.00400 | 2.60482 | 331 ft | 5 kts | 176° |
| 2026-05-05 12:52 | 49.00365 | 2.60453 | 332 ft | 7 kts | 242° |
| 2026-05-05 12:52 | 49.00359 | 2.60397 | 331 ft | 9 kts | 263° |
| 2026-05-05 12:52 | 49.00350 | 2.60246 | 328 ft | 12 kts | 265° |
| 2026-05-05 12:52 | 49.00345 | 2.60153 | 331 ft | 14 kts | 265° |
| 2026-05-05 12:53 | 49.00336 | 2.59992 | 329 ft | 17 kts | 265° |
| 2026-05-05 12:53 | 49.00326 | 2.59802 | 333 ft | 19 kts | 264° |
| 2026-05-05 12:53 | 49.00302 | 2.59624 | 331 ft | 16 kts | 240° |
| 2026-05-05 12:53 | 49.00254 | 2.59492 | 331 ft | 15 kts | 194° |
| 2026-05-05 12:54 | 49.00073 | 2.59381 | 330 ft | 18 kts | 266° |
| 2026-05-05 12:54 | 49.00062 | 2.59178 | 328 ft | 20 kts | 266° |
| 2026-05-05 12:54 | 49.00050 | 2.58964 | 330 ft | 21 kts | 266° |
| 2026-05-05 12:55 | 49.00037 | 2.58733 | 330 ft | 22 kts | 266° |
| 2026-05-05 12:55 | 49.00024 | 2.58493 | 331 ft | 23 kts | 266° |
| 2026-05-05 12:55 | 49.00010 | 2.58238 | 329 ft | 25 kts | 265° |
| 2026-05-05 12:55 | 48.99997 | 2.57973 | 333 ft | 26 kts | 265° |
| 2026-05-05 12:56 | 48.99982 | 2.57699 | 335 ft | 26 kts | 265° |
| 2026-05-05 12:56 | 48.99967 | 2.57410 | 336 ft | 28 kts | 265° |
| 2026-05-05 12:56 | 48.99949 | 2.57128 | 334 ft | 25 kts | 264° |
| 2026-05-05 12:56 | 48.99936 | 2.56854 | 337 ft | 27 kts | 266° |
| 2026-05-05 12:57 | 48.99921 | 2.56561 | 337 ft | 29 kts | 266° |
| 2026-05-05 12:57 | 48.99888 | 2.56297 | 339 ft | 17 kts | 224° |
| 2026-05-05 12:57 | 48.99782 | 2.56277 | 326 ft | 18 kts | 176° |
| 2026-05-05 12:57 | 48.99666 | 2.56293 | 335 ft | 13 kts | 162° |
| 2026-05-05 12:58 | 48.99633 | 2.56424 | 335 ft | 9 kts | 85° |
| 2026-05-05 12:58 | 48.99633 | 2.56429 | 336 ft | 0 kts | 85° |
| 2026-05-05 12:59 | 48.99633 | 2.56432 | 336 ft | 2 kts | 85° |
| 2026-05-05 12:59 | 48.99641 | 2.56567 | 334 ft | 36 kts | 85° |
| 2026-05-05 12:59 | 48.99681 | 2.57312 | 330 ft | 103 kts | 84° |
| 2026-05-05 13:00 | 48.99858 | 2.60359 | 950 ft | 166 kts | 81° |
| 2026-05-05 13:00 | 48.99963 | 2.62158 | 1243 ft | 172 kts | 82° |
| 2026-05-05 13:01 | 49.00235 | 2.67889 | 3260 ft | 187 kts | 83° |
| 2026-05-05 13:01 | 49.00345 | 2.69917 | 3951 ft | 198 kts | 83° |
| 2026-05-05 13:01 | 49.00463 | 2.72071 | 4684 ft | 210 kts | 84° |
| 2026-05-05 13:01 | 49.00576 | 2.74347 | 5375 ft | 221 kts | 85° |
| 2026-05-05 13:02 | 49.00696 | 2.76759 | 6053 ft | 234 kts | 85° |
| 2026-05-05 13:02 | 49.00823 | 2.79284 | 6704 ft | 245 kts | 85° |
| 2026-05-05 13:02 | 49.00960 | 2.81955 | 7351 ft | 253 kts | 85° |
| 2026-05-05 13:02 | 49.01099 | 2.84670 | 8003 ft | 261 kts | 85° |
| 2026-05-05 13:03 | 49.01242 | 2.87456 | 8670 ft | 266 kts | 85° |
| 2026-05-05 13:03 | 49.01337 | 2.89335 | 9079 ft | 272 kts | 85° |
| 2026-05-05 13:03 | 49.01487 | 2.92299 | 9152 ft | 272 kts | 85° |
| 2026-05-05 13:03 | 49.01667 | 2.95127 | 9878 ft | 270 kts | 81° |
| 2026-05-05 13:04 | 49.02137 | 2.98918 | 10723 ft | 280 kts | 78° |
| 2026-05-05 13:04 | 49.02402 | 3.00903 | 11148 ft | 285 kts | 79° |
| 2026-05-05 13:04 | 49.02902 | 3.04924 | 11938 ft | 298 kts | 80° |
| 2026-05-05 13:04 | 49.03152 | 3.07031 | 12369 ft | 303 kts | 80° |
| 2026-05-05 13:05 | 49.03530 | 3.10262 | 13001 ft | 309 kts | 80° |
| 2026-05-05 13:05 | 49.03902 | 3.13490 | 13622 ft | 317 kts | 81° |
| 2026-05-05 13:05 | 49.04296 | 3.16914 | 14219 ft | 323 kts | 81° |
| 2026-05-05 13:05 | 49.04697 | 3.20423 | 14827 ft | 328 kts | 81° |
| 2026-05-05 13:06 | 49.05091 | 3.23868 | 15398 ft | 333 kts | 81° |
| 2026-05-05 13:06 | 49.05496 | 3.27411 | 16017 ft | 338 kts | 81° |
| 2026-05-05 13:06 | 49.05902 | 3.30983 | 16647 ft | 341 kts | 82° |
| 2026-05-05 13:06 | 49.06307 | 3.34550 | 17252 ft | 345 kts | 82° |
| 2026-05-05 13:07 | 49.06717 | 3.38182 | 17902 ft | 349 kts | 82° |
| 2026-05-05 13:07 | 49.07130 | 3.41839 | 18496 ft | 352 kts | 82° |
| 2026-05-05 13:07 | 49.07551 | 3.45582 | 19063 ft | 356 kts | 82° |
| 2026-05-05 13:07 | 49.07971 | 3.49323 | 19663 ft | 360 kts | 82° |
| 2026-05-05 13:08 | 49.08403 | 3.53174 | 20260 ft | 363 kts | 82° |
| 2026-05-05 13:08 | 49.08807 | 3.56922 | 20854 ft | 366 kts | 84° |
| 2026-05-05 13:08 | 49.09079 | 3.60783 | 21480 ft | 366 kts | 86° |
| 2026-05-05 13:08 | 49.09305 | 3.64717 | 21923 ft | 374 kts | 86° |
| 2026-05-05 13:09 | 49.09547 | 3.68723 | 21942 ft | 382 kts | 86° |
| 2026-05-05 13:09 | 49.09811 | 3.72802 | 21855 ft | 389 kts | 86° |
| 2026-05-05 13:09 | 49.10083 | 3.76917 | 21856 ft | 389 kts | 86° |
| 2026-05-05 13:09 | 49.10355 | 3.81026 | 21835 ft | 390 kts | 86° |
| 2026-05-05 13:10 | 49.10625 | 3.85106 | 21811 ft | 390 kts | 86° |
| 2026-05-05 13:10 | 49.10898 | 3.89264 | 21817 ft | 391 kts | 86° |
| 2026-05-05 13:10 | 49.11167 | 3.93387 | 21839 ft | 391 kts | 86° |
| 2026-05-05 13:10 | 49.11436 | 3.97526 | 21840 ft | 391 kts | 86° |
| 2026-05-05 13:11 | 49.11699 | 4.01603 | 21835 ft | 391 kts | 86° |
| 2026-05-05 13:11 | 49.11964 | 4.05742 | 21842 ft | 392 kts | 86° |
| 2026-05-05 13:11 | 49.12228 | 4.09891 | 21827 ft | 393 kts | 86° |
| 2026-05-05 13:11 | 49.12493 | 4.14037 | 21813 ft | 393 kts | 86° |
| 2026-05-05 13:12 | 49.12755 | 4.18189 | 21837 ft | 393 kts | 86° |
| 2026-05-05 13:12 | 49.13017 | 4.22345 | 21841 ft | 394 kts | 86° |
| 2026-05-05 13:12 | 49.13279 | 4.26560 | 21828 ft | 393 kts | 86° |
| 2026-05-05 13:12 | 49.13533 | 4.30664 | 21818 ft | 393 kts | 86° |
| 2026-05-05 13:13 | 49.13790 | 4.34823 | 21820 ft | 394 kts | 86° |
| 2026-05-05 13:13 | 49.14377 | 4.38969 | 21843 ft | 398 kts | 72° |
| 2026-05-05 13:13 | 49.15384 | 4.42856 | 21847 ft | 399 kts | 69° |
| 2026-05-05 13:13 | 49.16472 | 4.46754 | 21826 ft | 399 kts | 69° |
| 2026-05-05 13:14 | 49.17529 | 4.50557 | 21834 ft | 399 kts | 69° |
| 2026-05-05 13:14 | 49.18603 | 4.54459 | 21830 ft | 399 kts | 69° |
| 2026-05-05 13:14 | 49.19674 | 4.58370 | 21832 ft | 398 kts | 70° |
| 2026-05-05 13:14 | 49.20741 | 4.62278 | 21843 ft | 398 kts | 70° |
| 2026-05-05 13:15 | 49.21808 | 4.66192 | 21846 ft | 398 kts | 70° |
| 2026-05-05 13:15 | 49.22871 | 4.70107 | 21847 ft | 398 kts | 70° |
| 2026-05-05 13:15 | 49.23934 | 4.74020 | 21844 ft | 398 kts | 70° |
| 2026-05-05 13:15 | 49.24995 | 4.77940 | 21840 ft | 399 kts | 70° |
| 2026-05-05 13:16 | 49.26035 | 4.81789 | 21842 ft | 399 kts | 70° |
| 2026-05-05 13:16 | 49.27094 | 4.85712 | 21840 ft | 399 kts | 70° |
| 2026-05-05 13:16 | 49.28152 | 4.89643 | 21842 ft | 399 kts | 70° |
| 2026-05-05 13:16 | 49.29210 | 4.93573 | 21838 ft | 399 kts | 71° |
| 2026-05-05 13:17 | 49.30265 | 4.97506 | 21838 ft | 400 kts | 71° |
| 2026-05-05 13:17 | 49.31320 | 5.01443 | 21842 ft | 400 kts | 71° |
| 2026-05-05 13:17 | 49.32378 | 5.05397 | 21839 ft | 400 kts | 71° |
| 2026-05-05 13:17 | 49.33435 | 5.09348 | 21840 ft | 401 kts | 71° |
| 2026-05-05 13:18 | 49.34480 | 5.13268 | 21852 ft | 402 kts | 71° |
| 2026-05-05 13:18 | 49.35535 | 5.17234 | 21850 ft | 402 kts | 71° |
| 2026-05-05 13:18 | 49.36591 | 5.21206 | 21845 ft | 401 kts | 71° |
| 2026-05-05 13:18 | 49.37645 | 5.25177 | 21844 ft | 402 kts | 71° |
| 2026-05-05 13:19 | 49.38686 | 5.29101 | 21843 ft | 402 kts | 71° |
| 2026-05-05 13:19 | 49.39740 | 5.33086 | 21839 ft | 403 kts | 71° |
| 2026-05-05 13:19 | 49.40792 | 5.37075 | 21835 ft | 403 kts | 71° |
| 2026-05-05 13:19 | 49.41849 | 5.41092 | 21842 ft | 404 kts | 71° |
| 2026-05-05 13:20 | 49.42875 | 5.44993 | 21845 ft | 404 kts | 71° |
| 2026-05-05 13:20 | 49.43924 | 5.48985 | 21848 ft | 404 kts | 71° |
| 2026-05-05 13:20 | 49.44975 | 5.52994 | 21843 ft | 404 kts | 71° |
| 2026-05-05 13:20 | 49.46024 | 5.56999 | 21850 ft | 404 kts | 71° |
| 2026-05-05 13:21 | 49.47052 | 5.60932 | 21844 ft | 404 kts | 71° |
| 2026-05-05 13:21 | 49.48098 | 5.64943 | 21847 ft | 404 kts | 71° |
| 2026-05-05 13:21 | 49.49142 | 5.68953 | 21846 ft | 404 kts | 71° |
| 2026-05-05 13:21 | 49.50185 | 5.72966 | 21852 ft | 404 kts | 71° |
| 2026-05-05 13:22 | 49.51265 | 5.76823 | 21857 ft | 406 kts | 63° |
| 2026-05-05 13:22 | 49.53064 | 5.80187 | 21859 ft | 412 kts | 44° |
| 2026-05-05 13:22 | 49.55303 | 5.82964 | 21864 ft | 413 kts | 36° |
| 2026-05-05 13:22 | 49.57766 | 5.85258 | 21863 ft | 414 kts | 31° |
| 2026-05-05 13:23 | 49.60251 | 5.87497 | 21852 ft | 413 kts | 32° |
| 2026-05-05 13:23 | 49.62707 | 5.89797 | 21848 ft | 413 kts | 33° |
| 2026-05-05 13:23 | 49.65142 | 5.92146 | 21840 ft | 413 kts | 33° |
| 2026-05-05 13:23 | 49.67569 | 5.94519 | 21840 ft | 412 kts | 33° |
| 2026-05-05 13:24 | 49.69942 | 5.96851 | 21832 ft | 412 kts | 34° |
| 2026-05-05 13:24 | 49.72339 | 5.99214 | 21844 ft | 412 kts | 34° |
| 2026-05-05 13:24 | 49.74749 | 6.01595 | 21855 ft | 412 kts | 34° |
| 2026-05-05 13:24 | 49.77173 | 6.03993 | 21855 ft | 411 kts | 34° |
| 2026-05-05 13:25 | 49.79530 | 6.06329 | 21853 ft | 411 kts | 34° |
| 2026-05-05 13:25 | 49.81953 | 6.08731 | 21850 ft | 411 kts | 34° |
| 2026-05-05 13:25 | 49.84381 | 6.11099 | 21856 ft | 411 kts | 31° |
| 2026-05-05 13:25 | 49.87032 | 6.12727 | 21872 ft | 414 kts | 13° |
| 2026-05-05 13:26 | 49.89798 | 6.13115 | 21887 ft | 414 kts | 1° |
| 2026-05-05 13:26 | 49.92714 | 6.13093 | 21838 ft | 415 kts | 359° |
| 2026-05-05 13:26 | 49.95602 | 6.13033 | 21831 ft | 414 kts | 359° |
| 2026-05-05 13:26 | 49.98444 | 6.13007 | 21822 ft | 414 kts | 360° |
| 2026-05-05 13:27 | 50.01258 | 6.13002 | 21812 ft | 414 kts | 0° |
| 2026-05-05 13:27 | 50.04153 | 6.13006 | 21823 ft | 414 kts | 0° |
| 2026-05-05 13:27 | 50.07046 | 6.13016 | 21834 ft | 415 kts | 0° |
| 2026-05-05 13:27 | 50.09927 | 6.13027 | 21835 ft | 415 kts | 0° |
| 2026-05-05 13:28 | 50.12819 | 6.13038 | 21835 ft | 416 kts | 0° |
| 2026-05-05 13:28 | 50.15709 | 6.13051 | 21841 ft | 416 kts | 0° |
| 2026-05-05 13:28 | 50.18605 | 6.13064 | 21837 ft | 416 kts | 0° |
| 2026-05-05 13:28 | 50.21498 | 6.13076 | 21837 ft | 416 kts | 0° |
| 2026-05-05 13:29 | 50.24394 | 6.13087 | 21840 ft | 416 kts | 0° |
| 2026-05-05 13:29 | 50.27290 | 6.13110 | 21834 ft | 416 kts | 2° |
| 2026-05-05 13:29 | 50.30139 | 6.13795 | 21836 ft | 414 kts | 19° |
| 2026-05-05 13:29 | 50.32707 | 6.15771 | 21849 ft | 412 kts | 34° |
| 2026-05-05 13:30 | 50.35078 | 6.18294 | 21855 ft | 412 kts | 37° |
| 2026-05-05 13:30 | 50.37432 | 6.20866 | 21813 ft | 412 kts | 36° |
| 2026-05-05 13:30 | 50.39808 | 6.23396 | 21459 ft | 412 kts | 36° |
| 2026-05-05 13:30 | 50.42183 | 6.25878 | 21163 ft | 409 kts | 35° |
| 2026-05-05 13:31 | 50.44551 | 6.28329 | 20839 ft | 407 kts | 35° |
| 2026-05-05 13:31 | 50.46911 | 6.30763 | 20538 ft | 404 kts | 34° |
| 2026-05-05 13:31 | 50.49260 | 6.33179 | 20251 ft | 402 kts | 34° |
| 2026-05-05 13:31 | 50.51626 | 6.35509 | 19935 ft | 401 kts | 31° |
| 2026-05-05 13:32 | 50.54048 | 6.37675 | 19660 ft | 399 kts | 30° |
| 2026-05-05 13:32 | 50.56458 | 6.39819 | 19371 ft | 397 kts | 31° |
| 2026-05-05 13:32 | 50.58046 | 6.41250 | 19165 ft | 396 kts | 31° |
| 2026-05-05 13:32 | 50.60424 | 6.43411 | 18885 ft | 394 kts | 31° |
| 2026-05-05 13:33 | 50.62788 | 6.45577 | 18617 ft | 392 kts | 31° |
| 2026-05-05 13:33 | 50.65141 | 6.47743 | 18327 ft | 391 kts | 31° |
| 2026-05-05 13:33 | 50.67482 | 6.49897 | 18035 ft | 389 kts | 31° |
| 2026-05-05 13:33 | 50.69811 | 6.52042 | 17723 ft | 386 kts | 31° |
| 2026-05-05 13:34 | 50.72125 | 6.54177 | 17380 ft | 384 kts | 31° |
| 2026-05-05 13:34 | 50.74426 | 6.56302 | 17074 ft | 382 kts | 31° |
| 2026-05-05 13:34 | 50.76714 | 6.58420 | 16775 ft | 380 kts | 31° |
| 2026-05-05 13:34 | 50.78989 | 6.60527 | 16448 ft | 379 kts | 31° |
| 2026-05-05 13:35 | 50.80926 | 6.62320 | 16203 ft | 376 kts | 31° |
| 2026-05-05 13:35 | 50.83356 | 6.63834 | 15873 ft | 376 kts | 13° |
| 2026-05-05 13:35 | 50.85930 | 6.64482 | 15597 ft | 374 kts | 6° |
| 2026-05-05 13:35 | 50.88517 | 6.64919 | 15288 ft | 374 kts | 6° |
| 2026-05-05 13:36 | 50.91089 | 6.65410 | 14989 ft | 371 kts | 7° |
| 2026-05-05 13:36 | 50.93648 | 6.65952 | 14706 ft | 368 kts | 8° |
| 2026-05-05 13:36 | 50.96159 | 6.66508 | 14393 ft | 352 kts | 8° |
| 2026-05-05 13:36 | 50.98537 | 6.67048 | 14094 ft | 339 kts | 8° |
| 2026-05-05 13:37 | 51.01137 | 6.67645 | 13685 ft | 328 kts | 8° |
| 2026-05-05 13:37 | 51.03071 | 6.68047 | 13306 ft | 321 kts | 4° |
| 2026-05-05 13:37 | 51.05273 | 6.68005 | 12908 ft | 314 kts | 355° |
| 2026-05-05 13:37 | 51.07472 | 6.67685 | 12482 ft | 310 kts | 354° |
| 2026-05-05 13:38 | 51.09762 | 6.67388 | 12045 ft | 309 kts | 356° |
| 2026-05-05 13:38 | 51.11741 | 6.67658 | 11678 ft | 307 kts | 12° |
| 2026-05-05 13:38 | 51.13802 | 6.68557 | 11274 ft | 307 kts | 18° |
| 2026-05-05 13:38 | 51.15842 | 6.69555 | 10891 ft | 306 kts | 13° |
| 2026-05-05 13:39 | 51.17943 | 6.69558 | 10480 ft | 305 kts | 343° |
| 2026-05-05 13:39 | 51.19897 | 6.68301 | 10095 ft | 301 kts | 330° |
| 2026-05-05 13:39 | 51.21512 | 6.66196 | 9712 ft | 294 kts | 304° |
| 2026-05-05 13:39 | 51.22231 | 6.63254 | 9271 ft | 283 kts | 271° |
| 2026-05-05 13:40 | 51.21896 | 6.60263 | 8853 ft | 273 kts | 240° |
| 2026-05-05 13:40 | 51.20643 | 6.58088 | 8464 ft | 267 kts | 211° |
| 2026-05-05 13:40 | 51.18893 | 6.57131 | 8064 ft | 269 kts | 186° |
| 2026-05-05 13:40 | 51.17039 | 6.56901 | 7628 ft | 267 kts | 194° |
| 2026-05-05 13:41 | 51.15428 | 6.55471 | 7235 ft | 266 kts | 225° |
| 2026-05-05 13:41 | 51.14587 | 6.52878 | 6832 ft | 266 kts | 258° |
| 2026-05-05 13:41 | 51.14787 | 6.49944 | 6431 ft | 268 kts | 293° |
| 2026-05-05 13:41 | 51.15966 | 6.47698 | 6037 ft | 268 kts | 326° |
| 2026-05-05 13:42 | 51.17730 | 6.46840 | 5632 ft | 268 kts | 359° |
| 2026-05-05 13:42 | 51.19462 | 6.47613 | 5222 ft | 263 kts | 34° |
| 2026-05-05 13:42 | 51.20657 | 6.49752 | 4807 ft | 253 kts | 63° |
| 2026-05-05 13:42 | 51.21343 | 6.52302 | 4426 ft | 247 kts | 70° |
| 2026-05-05 13:43 | 51.21903 | 6.54861 | 4017 ft | 244 kts | 72° |
| 2026-05-05 13:43 | 51.22306 | 6.57468 | 3611 ft | 239 kts | 77° |
| 2026-05-05 13:43 | 51.22767 | 6.59932 | 3246 ft | 225 kts | 67° |
| 2026-05-05 13:43 | 51.23444 | 6.62128 | 2825 ft | 218 kts | 61° |
| 2026-05-05 13:44 | 51.24159 | 6.64221 | 2425 ft | 211 kts | 61° |
| 2026-05-05 13:44 | 51.24834 | 6.66218 | 1996 ft | 198 kts | 60° |
| 2026-05-05 13:44 | 51.25458 | 6.68075 | 1581 ft | 181 kts | 59° |
| 2026-05-05 13:44 | 51.25989 | 6.69803 | 1203 ft | 166 kts | 64° |
| 2026-05-05 13:45 | 51.26400 | 6.71395 | 966 ft | 150 kts | 63° |
| 2026-05-05 13:45 | 51.26876 | 6.72892 | 575 ft | 146 kts | 54° |
| 2026-05-05 13:45 | 51.27435 | 6.74114 | 357 ft | 133 kts | 49° |
| 2026-05-05 13:45 | 51.27990 | 6.75268 | 194 ft | 127 kts | 47° |
| 2026-05-05 13:46 | 51.28515 | 6.76342 | 118 ft | 113 kts | 50° |
| 2026-05-05 13:46 | 51.28889 | 6.77150 | 115 ft | 67 kts | 51° |
| 2026-05-05 13:46 | 51.29021 | 6.77516 | 117 ft | 23 kts | 98° |
| 2026-05-05 13:46 | 51.28915 | 6.77646 | 117 ft | 18 kts | 190° |
| 2026-05-05 13:47 | 51.28834 | 6.77496 | 117 ft | 19 kts | 233° |
| 2026-05-05 13:47 | 51.28750 | 6.77320 | 114 ft | 20 kts | 231° |
| 2026-05-05 13:47 | 51.28663 | 6.77138 | 115 ft | 22 kts | 234° |
| 2026-05-05 13:47 | 51.28570 | 6.76943 | 117 ft | 22 kts | 233° |
| 2026-05-05 13:48 | 51.28475 | 6.76738 | 115 ft | 24 kts | 234° |
| 2026-05-05 13:48 | 51.28372 | 6.76523 | 117 ft | 25 kts | 231° |
| 2026-05-05 13:48 | 51.28305 | 6.76501 | 116 ft | 0 kts | 136° |
| 2026-05-05 13:48 | 51.28300 | 6.76509 | 117 ft | 2 kts | 134° |
| 2026-05-05 13:49 | 51.28281 | 6.76509 | 115 ft | 5 kts | 198° |
| 2026-05-05 13:49 | 51.28246 | 6.76457 | 115 ft | 8 kts | 226° |
| 2026-05-05 13:49 | 51.28182 | 6.76427 | 116 ft | 11 kts | 188° |
| 2026-05-05 13:49 | 51.28099 | 6.76397 | 115 ft | 12 kts | 200° |
| 2026-05-05 13:50 | 51.28045 | 6.76368 | 116 ft | 4 kts | 197° |
| 2026-05-05 13:50 | 51.28042 | 6.76367 | 117 ft | 0 kts | 197° |